Time;durP1;ratioP1;P1;durP2;ratioP2;P2;SDS_P1;SDS_P2;PMS_P1;PMS_P2;Temp;Humidity;BMP_temperature;BMP_pressure;BME280_temperature;BME280_humidity;BME280_pressure;Samples;Min_cycle;Max_cycle;Signal;HPM_P1;HPM_P2
2021/09/30 00:01:24;;;;;;;3.90;1.63;;;8.90;99.90;;;;;;6089299;23;21111;-79
2021/09/30 00:03:56;;;;;;;2.00;1.47;;;8.90;99.90;;;;;;6089425;23;20563;-79
2021/09/30 00:06:27;;;;;;;7.17;1.30;;;8.80;99.90;;;;;;6088524;23;20532;-79
2021/09/30 00:09:03;;;;;;;1.30;1.20;;;8.70;99.90;;;;;;6088970;23;21203;-79
2021/09/30 00:11:45;;;;;;;2.40;1.53;;;8.80;99.90;;;;;;6089224;22;20613;-79
2021/09/30 00:14:40;;;;;;;1.53;1.17;;;8.70;99.90;;;;;;6089783;23;20559;-79
2021/09/30 00:17:36;;;;;;;0.97;0.97;;;8.70;99.90;;;;;;6088207;23;20579;-79
2021/09/30 00:34:51;;;;;;;2.30;1.40;;;8.30;99.90;;;;;;6089233;23;20554;-79
2021/09/30 00:40:26;;;;;;;2.87;1.60;;;8.30;99.90;;;;;;6088394;23;20685;-79
2021/09/30 00:46:07;;;;;;;1.40;1.30;;;8.30;99.90;;;;;;6089221;23;20542;-78
2021/09/30 00:49:00;;;;;;;1.47;1.37;;;8.30;99.90;;;;;;6081386;23;20676;-78
2021/09/30 00:51:46;;;;;;;1.57;1.47;;;8.40;99.90;;;;;;6089400;23;20613;-78
2021/09/30 02:39:30;;;;;;;1.80;1.70;;;7.90;99.90;;;;;;5058808;28;20588;-77
2021/09/30 03:00:00;;;;;;;2.50;1.70;;;7.60;99.90;;;;;;5041656;28;20231;-77
2021/09/30 03:02:42;;;;;;;3.53;1.63;;;7.50;99.90;;;;;;5042547;28;20228;-77
2021/09/30 03:05:25;;;;;;;1.65;1.55;;;7.60;99.90;;;;;;5042253;28;20291;-77
2021/09/30 03:08:03;;;;;;;2.05;1.85;;;7.60;99.90;;;;;;5039552;27;20292;-77
2021/09/30 03:10:36;;;;;;;2.47;2.28;;;7.70;99.90;;;;;;5034067;28;20205;-77
2021/09/30 03:13:10;;;;;;;1.58;1.45;;;7.60;99.90;;;;;;5029220;28;20208;-76
2021/09/30 03:15:51;;;;;;;4.13;2.15;;;7.50;99.90;;;;;;5028843;28;20254;-77
2021/09/30 03:18:51;;;;;;;2.05;1.75;;;7.40;99.90;;;;;;5027336;28;20291;-77
2021/09/30 03:24:28;;;;;;;1.67;1.60;;;7.40;99.90;;;;;;5002131;28;20204;-77
2021/09/30 03:27:09;;;;;;;2.30;1.92;;;7.40;99.90;;;;;;5045589;28;20203;-77
2021/09/30 03:29:44;;;;;;;2.47;1.90;;;7.40;99.90;;;;;;5048721;28;20229;-77
2021/09/30 03:32:21;;;;;;;1.42;1.33;;;7.40;99.90;;;;;;5048448;28;20203;-77
2021/09/30 03:34:57;;;;;;;1.75;1.65;;;7.50;99.90;;;;;;5048403;28;20199;-77
2021/09/30 03:37:32;;;;;;;2.50;2.03;;;7.40;99.90;;;;;;5047209;28;20200;-77
2021/09/30 03:40:09;;;;;;;1.60;1.50;;;7.50;99.90;;;;;;5048453;28;20241;-78
2021/09/30 03:42:44;;;;;;;1.33;1.23;;;7.30;99.90;;;;;;5047934;27;20235;-77
2021/09/30 03:45:32;;;;;;;2.92;1.88;;;7.20;99.90;;;;;;5047449;28;20288;-77
2021/09/30 03:48:09;;;;;;;3.83;1.90;;;7.20;99.90;;;;;;5048806;28;20192;-77
2021/09/30 03:50:51;;;;;;;1.90;1.80;;;7.20;99.90;;;;;;5048994;28;20668;-77
2021/09/30 03:53:37;;;;;;;2.17;1.98;;;7.30;99.90;;;;;;5049288;27;20729;-77
2021/09/30 03:56:30;;;;;;;2.20;2.00;;;7.40;99.90;;;;;;5048403;28;20555;-77
2021/09/30 04:01:57;;;;;;;2.28;1.95;;;7.30;99.90;;;;;;5048657;28;20672;-77
2021/09/30 04:04:32;;;;;;;3.38;2.17;;;7.20;99.90;;;;;;5048312;27;20200;-77
2021/09/30 04:07:10;;;;;;;2.13;2.00;;;7.20;99.90;;;;;;5048231;28;20204;-77
2021/09/30 04:09:57;;;;;;;4.05;1.88;;;7.10;99.90;;;;;;5048411;27;20291;-77
2021/09/30 04:12:36;;;;;;;1.90;1.80;;;7.20;99.90;;;;;;5043220;28;20224;-77
2021/09/30 04:15:12;;;;;;;2.20;2.00;;;7.30;99.90;;;;;;5048664;28;20226;-77
2021/09/30 04:17:53;;;;;;;3.70;2.22;;;7.30;99.90;;;;;;5048416;28;20276;-77
2021/09/30 04:20:38;;;;;;;1.95;1.85;;;7.40;99.90;;;;;;5048365;27;20557;-77
2021/09/30 04:23:17;;;;;;;2.60;2.40;;;7.40;99.90;;;;;;5046639;28;20208;-77
2021/09/30 04:25:58;;;;;;;2.00;1.85;;;7.30;99.90;;;;;;5046481;28;20756;-77
2021/09/30 04:28:36;;;;;;;2.28;1.70;;;7.30;99.90;;;;;;5047291;28;20200;-77
2021/09/30 04:31:13;;;;;;;2.65;1.50;;;7.10;99.90;;;;;;5048309;28;20203;-77
2021/09/30 04:33:47;;;;;;;2.38;1.85;;;7.20;99.90;;;;;;5047703;27;20196;-77
2021/09/30 04:36:17;;;;;;;3.08;2.38;;;7.30;99.90;;;;;;5048217;28;20206;-77
2021/09/30 04:38:55;;;;;;;3.03;2.75;;;7.40;99.90;;;;;;5047797;28;20670;-77
2021/09/30 04:41:34;;;;;;;2.42;2.17;;;7.40;99.90;;;;;;5048117;28;20200;-77
2021/09/30 04:44:13;;;;;;;2.38;2.10;;;7.50;99.90;;;;;;5047599;28;20647;-77
2021/09/30 04:46:59;;;;;;;2.05;1.85;;;7.30;99.90;;;;;;5047488;28;20204;-77
2021/09/30 04:49:37;;;;;;;2.53;2.00;;;7.40;99.90;;;;;;5047869;28;20264;-77
2021/09/30 04:52:08;;;;;;;9.50;2.78;;;7.40;99.90;;;;;;5047843;28;20204;-77
2021/09/30 04:54:42;;;;;;;2.20;2.00;;;7.20;99.90;;;;;;5047831;28;20198;-77
2021/09/30 04:57:28;;;;;;;1.80;1.70;;;7.20;99.90;;;;;;5046953;28;20257;-77
2021/09/30 05:00:08;;;;;;;2.42;2.20;;;7.20;99.90;;;;;;5047630;28;20754;-78
2021/09/30 05:02:49;;;;;;;2.53;2.22;;;7.20;99.90;;;;;;5047231;27;20223;-78
2021/09/30 05:05:37;;;;;;;6.72;3.20;;;7.20;99.90;;;;;;5046635;28;20302;-78
2021/09/30 05:08:12;;;;;;;3.55;2.20;;;7.70;99.90;;;;;;5047091;28;20576;-78
2021/09/30 05:10:51;;;;;;;4.32;2.50;;;7.30;99.90;;;;;;5047763;27;20283;-78
2021/09/30 05:13:38;;;;;;;2.80;2.55;;;7.40;99.90;;;;;;5047684;28;20719;-78
2021/09/30 05:16:13;;;;;;;5.07;2.25;;;7.40;99.90;;;;;;5047771;28;20204;-78
2021/09/30 05:18:58;;;;;;;2.85;2.60;;;7.40;99.90;;;;;;5047540;28;20570;-78
2021/09/30 05:21:31;;;;;;;4.40;2.10;;;7.40;99.90;;;;;;5046781;27;20203;-78
2021/09/30 05:24:06;;;;;;;2.85;2.10;;;7.30;99.90;;;;;;5049618;28;20203;-77
2021/09/30 05:26:48;;;;;;;2.15;2.05;;;7.30;99.90;;;;;;5048086;28;20214;-78
2021/09/30 05:29:35;;;;;;;1.70;1.60;;;7.30;99.90;;;;;;5046220;27;20240;-78
2021/09/30 05:32:08;;;;;;;1.98;1.83;;;7.30;99.90;;;;;;5046818;28;20920;-78
2021/09/30 05:34:49;;;;;;;2.10;2.00;;;7.10;99.90;;;;;;5038866;27;20318;-77
2021/09/30 05:37:36;;;;;;;2.50;2.30;;;7.10;99.90;;;;;;5081010;27;20201;-78
2021/09/30 05:40:06;;;;;;;2.10;1.90;;;7.00;99.90;;;;;;5095504;27;20280;-78
2021/09/30 05:42:47;;;;;;;4.53;2.40;;;6.90;99.90;;;;;;5046287;28;20207;-78
2021/09/30 05:45:24;;;;;;;2.58;2.30;;;6.90;99.90;;;;;;5032200;27;20211;-78
2021/09/30 05:48:05;;;;;;;2.83;1.98;;;6.90;99.90;;;;;;5049588;28;20208;-78
2021/09/30 05:50:52;;;;;;;3.58;2.97;;;6.80;99.90;;;;;;5065160;27;20677;-78
2021/09/30 05:53:38;;;;;;;2.30;2.10;;;6.80;99.90;;;;;;5067405;27;20653;-77
2021/09/30 05:56:10;;;;;;;5.03;2.30;;;6.80;99.90;;;;;;5049540;27;20204;-77
2021/09/30 05:58:47;;;;;;;5.38;2.35;;;6.90;99.90;;;;;;5045773;27;20215;-77
2021/09/30 06:01:36;;;;;;;3.05;2.25;;;6.80;99.90;;;;;;5045001;27;20223;-78
2021/09/30 06:10:41;;;;;;;2.30;2.00;;;7.10;99.90;;;;;;5043587;28;20192;-78
2021/09/30 06:13:32;;;;;;;2.20;2.00;;;7.30;99.90;;;;;;5043852;27;20207;-78
2021/09/30 06:16:14;;;;;;;2.78;2.40;;;7.30;99.90;;;;;;5043842;28;20200;-80
2021/09/30 06:18:48;;;;;;;6.50;2.30;;;7.30;99.90;;;;;;5043077;27;20204;-79
2021/09/30 06:21:24;;;;;;;2.58;2.38;;;7.40;99.90;;;;;;5046201;28;20234;-80
2021/09/30 06:24:07;;;;;;;2.90;2.55;;;7.50;99.90;;;;;;5042530;27;20222;-80
2021/09/30 06:26:48;;;;;;;2.85;2.42;;;7.40;99.90;;;;;;5042209;27;20196;-80
2021/09/30 06:29:22;;;;;;;2.30;2.10;;;7.50;99.90;;;;;;5044300;28;20728;-81
2021/09/30 06:31:53;;;;;;;2.55;1.88;;;7.50;99.90;;;;;;5045303;28;20204;-81
2021/09/30 06:34:42;;;;;;;2.45;1.95;;;7.60;99.90;;;;;;5046936;27;20287;-80
2021/09/30 06:37:17;;;;;;;2.45;1.85;;;7.60;99.90;;;;;;5047654;27;20219;-80
2021/09/30 06:39:53;;;;;;;4.15;1.98;;;7.70;99.90;;;;;;5048532;27;20752;-80
2021/09/30 06:42:29;;;;;;;5.18;2.00;;;7.80;99.90;;;;;;5059055;27;20219;-80
2021/09/30 06:45:18;;;;;;;3.05;1.80;;;7.90;99.90;;;;;;5064463;27;20308;-81
2021/09/30 06:47:59;;;;;;;2.72;1.73;;;8.00;99.90;;;;;;5048678;27;20307;-81
2021/09/30 06:50:31;;;;;;;1.38;1.27;;;8.10;99.90;;;;;;5054308;27;20617;-80
2021/09/30 06:53:05;;;;;;;2.47;1.47;;;8.20;99.90;;;;;;5048447;28;20208;-80
2021/09/30 06:55:44;;;;;;;1.40;1.30;;;8.30;99.90;;;;;;5047601;27;21277;-80
2021/09/30 06:58:31;;;;;;;4.97;1.77;;;8.40;99.90;;;;;;5050032;27;20674;-80
2021/09/30 07:01:18;;;;;;;1.23;1.13;;;8.40;99.90;;;;;;5060788;28;21222;-80
2021/09/30 07:04:06;;;;;;;1.70;1.60;;;8.50;99.90;;;;;;5072926;27;20200;-80
2021/09/30 07:06:40;;;;;;;1.60;1.50;;;8.60;99.90;;;;;;5046369;27;20224;-80
2021/09/30 07:09:18;;;;;;;1.80;1.70;;;8.70;99.90;;;;;;5048340;27;20630;-80
2021/09/30 07:12:06;;;;;;;1.43;1.33;;;8.80;99.90;;;;;;5047839;27;20710;-80
2021/09/30 07:14:48;;;;;;;2.63;1.90;;;8.90;99.90;;;;;;5050232;27;20626;-80
2021/09/30 07:17:28;;;;;;;3.10;1.43;;;9.00;99.90;;;;;;5041576;28;20652;-80
2021/09/30 07:20:06;;;;;;;1.10;1.03;;;9.10;99.90;;;;;;5046729;28;20650;-79
2021/09/30 07:22:38;;;;;;;2.47;1.83;;;9.20;99.90;;;;;;5047364;28;20630;-80
2021/09/30 07:25:15;;;;;;;1.60;1.43;;;9.30;99.90;;;;;;5043029;27;21162;-77
2021/09/30 07:27:51;;;;;;;4.90;1.70;;;9.40;99.90;;;;;;5050075;27;20633;-77
2021/09/30 07:30:25;;;;;;;6.80;1.60;;;9.60;99.90;;;;;;5046381;28;20997;-77
2021/09/30 07:33:00;;;;;;;4.10;1.73;;;9.60;99.90;;;;;;5046830;28;20633;-77
2021/09/30 07:35:36;;;;;;;1.47;1.27;;;9.70;99.90;;;;;;5044849;28;20714;-77
2021/09/30 07:38:09;;;;;;;2.70;1.47;;;9.80;99.90;;;;;;5054136;27;20999;-77
2021/09/30 07:40:44;;;;;;;2.43;2.23;;;10.00;99.90;;;;;;5064263;27;20645;-77
2021/09/30 07:43:17;;;;;;;6.17;3.47;;;10.00;99.90;;;;;;5045062;28;20626;-78
2021/09/30 07:45:58;;;;;;;3.73;1.70;;;10.10;99.90;;;;;;5046535;28;20631;-77
2021/09/30 07:48:31;;;;;;;1.90;1.17;;;10.20;99.90;;;;;;5048721;28;21210;-77
2021/09/30 07:51:10;;;;;;;2.23;1.00;;;10.40;99.70;;;;;;5062015;27;20761;-78
2021/09/30 07:53:48;;;;;;;1.00;1.00;;;10.50;98.90;;;;;;5046428;27;20785;-78
2021/09/30 07:56:34;;;;;;;0.93;0.90;;;10.60;99.30;;;;;;5046149;27;20622;-77
2021/09/30 07:59:09;;;;;;;2.77;1.27;;;10.70;97.80;;;;;;5046449;27;21035;-77
2021/09/30 08:01:46;;;;;;;1.00;1.00;;;10.80;98.30;;;;;;5046513;28;20668;-78
2021/09/30 08:04:25;;;;;;;7.73;2.20;;;10.90;99.10;;;;;;5046156;28;20633;-78
2021/09/30 08:07:05;;;;;;;2.73;1.20;;;11.10;99.00;;;;;;5064553;27;20633;-78
2021/09/30 08:09:43;;;;;;;1.23;1.00;;;11.20;98.30;;;;;;5051295;27;20614;-78
2021/09/30 08:12:17;;;;;;;1.87;1.10;;;11.10;97.40;;;;;;5050451;27;20662;-78
2021/09/30 08:15:07;;;;;;;0.83;0.73;;;11.10;97.20;;;;;;5045177;27;20679;-78
2021/09/30 08:17:53;;;;;;;2.47;1.30;;;11.20;96.90;;;;;;5059948;27;20615;-78
2021/09/30 08:20:41;;;;;;;1.77;1.20;;;11.30;97.10;;;;;;5046387;28;21282;-78
2021/09/30 08:23:15;;;;;;;2.97;1.30;;;11.50;96.70;;;;;;5047453;27;20746;-78
2021/09/30 08:25:59;;;;;;;2.40;0.90;;;11.60;96.20;;;;;;5044531;28;21187;-78
2021/09/30 08:28:44;;;;;;;2.10;0.93;;;11.70;96.10;;;;;;5045114;27;20643;-78
2021/09/30 08:31:27;;;;;;;2.10;1.13;;;11.80;95.90;;;;;;5051941;27;20631;-78
2021/09/30 08:34:10;;;;;;;1.10;0.80;;;11.80;94.40;;;;;;5046511;28;20668;-78
2021/09/30 08:36:49;;;;;;;4.53;1.20;;;11.90;94.80;;;;;;5045540;28;20637;-78
2021/09/30 08:39:29;;;;;;;0.93;0.77;;;12.00;94.10;;;;;;5052703;27;21089;-78
2021/09/30 08:42:09;;;;;;;1.10;1.00;;;12.10;92.70;;;;;;5057540;27;20667;-78
2021/09/30 08:44:49;;;;;;;0.70;0.70;;;12.10;91.80;;;;;;5044094;27;20628;-78
2021/09/30 08:47:29;;;;;;;3.60;1.00;;;12.30;91.20;;;;;;5046576;28;21048;-77
2021/09/30 08:50:02;;;;;;;2.80;1.07;;;12.40;91.00;;;;;;5045570;28;20659;-78
2021/09/30 08:52:49;;;;;;;3.33;0.90;;;12.30;90.80;;;;;;5042280;27;20668;-78
2021/09/30 08:55:27;;;;;;;4.00;1.97;;;12.30;90.50;;;;;;5044157;27;20623;-78
2021/09/30 08:58:02;;;;;;;2.07;1.80;;;12.40;91.70;;;;;;5046584;28;20664;-78
2021/09/30 09:00:42;;;;;;;2.70;1.07;;;12.30;90.00;;;;;;5043350;27;20671;-78
2021/09/30 09:03:32;;;;;;;1.60;0.80;;;12.20;90.20;;;;;;5043077;27;20647;-79
2021/09/30 09:06:27;;;;;;;1.17;0.77;;;12.10;90.40;;;;;;5048664;27;20655;-78
2021/09/30 09:09:23;;;;;;;3.33;0.70;;;12.00;90.40;;;;;;5044675;27;20977;-77
2021/09/30 09:12:10;;;;;;;0.70;0.70;;;12.00;91.30;;;;;;5039815;27;20657;-78
2021/09/30 09:14:55;;;;;;;1.70;0.93;;;12.20;90.10;;;;;;5043869;27;21225;-78
2021/09/30 09:17:49;;;;;;;1.37;0.80;;;12.50;90.60;;;;;;5047395;27;20641;-78
2021/09/30 09:20:37;;;;;;;3.03;1.03;;;12.70;88.20;;;;;;5050734;27;20692;-77
2021/09/30 09:23:10;;;;;;;2.20;1.10;;;12.60;86.80;;;;;;5047507;28;20661;-78
2021/09/30 09:25:41;;;;;;;3.60;1.00;;;12.80;87.40;;;;;;5070287;27;20619;-78
2021/09/30 09:28:19;;;;;;;2.00;0.70;;;12.90;90.00;;;;;;5045870;28;20751;-78
2021/09/30 09:30:52;;;;;;;1.53;0.60;;;13.00;88.60;;;;;;5045962;27;20618;-78
2021/09/30 09:33:35;;;;;;;1.93;0.60;;;12.80;87.00;;;;;;5044928;27;21009;-78
2021/09/30 09:36:19;;;;;;;4.20;2.50;;;12.80;88.00;;;;;;5037241;28;21209;-78
2021/09/30 09:38:53;;;;;;;0.87;0.70;;;12.90;88.20;;;;;;5041733;27;20630;-78
2021/09/30 09:41:26;;;;;;;1.17;0.80;;;13.10;84.10;;;;;;5040914;28;21006;-78
2021/09/30 09:44:01;;;;;;;4.10;2.00;;;13.10;85.70;;;;;;5036249;28;20752;-79
2021/09/30 09:46:36;;;;;;;1.80;0.80;;;13.30;83.30;;;;;;5038341;27;20630;-79
2021/09/30 09:49:19;;;;;;;1.00;0.83;;;13.70;82.30;;;;;;5038833;28;20639;-79
2021/09/30 09:51:56;;;;;;;2.27;1.10;;;13.60;79.20;;;;;;5044187;28;20632;-79
2021/09/30 09:54:36;;;;;;;3.17;1.13;;;13.90;80.80;;;;;;5035019;28;20666;-79
2021/09/30 09:57:12;;;;;;;2.30;1.13;;;14.00;82.10;;;;;;5057248;27;20620;-79
2021/09/30 09:59:57;;;;;;;3.30;0.70;;;14.10;78.40;;;;;;5038051;27;20676;-78
2021/09/30 10:02:44;;;;;;;1.67;0.80;;;14.40;80.00;;;;;;5036358;27;20657;-78
2021/09/30 10:05:31;;;;;;;3.47;1.00;;;14.00;77.20;;;;;;5036649;28;20990;-78
2021/09/30 10:08:07;;;;;;;2.53;1.03;;;13.80;80.30;;;;;;5034970;28;20710;-79
2021/09/30 10:10:47;;;;;;;1.60;0.77;;;14.10;80.10;;;;;;5055987;27;20674;-79
2021/09/30 10:13:32;;;;;;;2.50;1.20;;;14.40;80.40;;;;;;5079835;27;21306;-79
2021/09/30 10:16:18;;;;;;;1.93;1.00;;;14.30;79.50;;;;;;5035039;28;20734;-79
2021/09/30 10:18:57;;;;;;;0.63;0.60;;;14.30;79.50;;;;;;5035961;27;20710;-79
2021/09/30 10:21:32;;;;;;;0.70;0.70;;;14.20;77.00;;;;;;5040703;28;20657;-79
2021/09/30 10:24:14;;;;;;;0.70;0.70;;;14.20;80.00;;;;;;5044922;27;20675;-79
2021/09/30 10:26:52;;;;;;;4.27;0.90;;;14.50;80.10;;;;;;5066428;27;20623;-79
2021/09/30 10:29:37;;;;;;;2.37;1.30;;;14.80;76.20;;;;;;5033088;28;20754;-79
2021/09/30 10:32:16;;;;;;;0.70;0.60;;;15.00;73.40;;;;;;5043411;28;21099;-79
2021/09/30 10:34:59;;;;;;;0.60;0.50;;;15.30;69.30;;;;;;5038673;27;21524;-79
2021/09/30 10:37:36;;;;;;;1.70;1.03;;;14.90;71.70;;;;;;5040305;28;20658;-79
2021/09/30 10:40:20;;;;;;;1.37;0.90;;;15.20;70.60;;;;;;5034439;28;20679;-79
2021/09/30 10:43:00;;;;;;;3.37;1.00;;;15.00;71.60;;;;;;5035804;28;20623;-79
2021/09/30 10:45:40;;;;;;;1.37;0.80;;;14.50;76.10;;;;;;5061835;27;20637;-79
2021/09/30 10:48:40;;;;;;;2.63;0.60;;;14.10;71.80;;;;;;5068746;27;21211;-78
2021/09/30 10:51:14;;;;;;;1.17;0.60;;;14.20;73.50;;;;;;5059135;27;21189;-79
2021/09/30 10:54:00;;;;;;;4.83;0.63;;;14.20;76.80;;;;;;5053937;27;20622;-80
2021/09/30 10:56:40;;;;;;;1.37;0.40;;;14.60;73.80;;;;;;5035805;28;20677;-79
2021/09/30 10:59:39;;;;;;;1.90;0.63;;;14.60;70.30;;;;;;5034081;28;20628;-79
2021/09/30 11:02:22;;;;;;;1.77;0.67;;;14.70;72.00;;;;;;5046988;27;20672;-79
2021/09/30 11:05:09;;;;;;;0.90;0.80;;;14.30;68.90;;;;;;5035320;28;20631;-79
2021/09/30 11:07:43;;;;;;;2.00;1.30;;;14.70;71.00;;;;;;5035448;28;20683;-79
2021/09/30 11:10:25;;;;;;;1.73;0.60;;;14.80;71.50;;;;;;5035328;28;20630;-78
2021/09/30 11:13:17;;;;;;;1.40;0.60;;;14.70;73.00;;;;;;5037127;28;20619;-79
2021/09/30 11:16:02;;;;;;;3.43;1.40;;;14.50;73.60;;;;;;5036344;28;20619;-79
2021/09/30 11:18:42;;;;;;;0.97;0.50;;;14.70;72.40;;;;;;5043063;28;20640;-79
2021/09/30 11:21:46;;;;;;;1.47;0.67;;;14.50;69.60;;;;;;5033002;28;20653;-79
2021/09/30 11:24:53;;;;;;;2.53;1.00;;;14.70;73.00;;;;;;5028780;28;20649;-79
2021/09/30 11:27:33;;;;;;;5.43;2.10;;;15.10;70.60;;;;;;5046202;27;20622;-79
2021/09/30 11:30:21;;;;;;;1.70;0.60;;;14.70;71.50;;;;;;5037746;28;20627;-79
2021/09/30 11:33:07;;;;;;;0.80;0.60;;;14.80;69.90;;;;;;5032608;28;20631;-80
2021/09/30 11:35:49;;;;;;;1.80;0.60;;;15.00;71.40;;;;;;5033428;27;20612;-80
2021/09/30 11:38:31;;;;;;;1.17;0.53;;;15.40;67.80;;;;;;5035582;27;20663;-80
2021/09/30 11:41:14;;;;;;;0.80;0.60;;;15.50;64.00;;;;;;5037503;27;20754;-79
2021/09/30 11:43:48;;;;;;;2.60;1.40;;;15.20;65.30;;;;;;5037535;28;20643;-79
2021/09/30 11:46:32;;;;;;;0.70;0.60;;;14.90;65.60;;;;;;5037324;28;20635;-80
2021/09/30 11:49:16;;;;;;;1.60;0.60;;;15.00;69.70;;;;;;5035401;28;20625;-80
2021/09/30 11:51:58;;;;;;;0.80;0.53;;;15.00;68.00;;;;;;5034477;27;20637;-80
2021/09/30 11:54:37;;;;;;;3.70;1.20;;;15.10;68.00;;;;;;5035667;28;20619;-80
2021/09/30 11:57:18;;;;;;;1.23;0.70;;;15.10;67.20;;;;;;5036137;28;20626;-81
2021/09/30 12:00:09;;;;;;;4.33;0.90;;;15.10;68.50;;;;;;5034336;28;20650;-81
2021/09/30 12:02:56;;;;;;;0.70;0.60;;;15.20;70.70;;;;;;5036671;28;20655;-81
2021/09/30 12:05:42;;;;;;;1.33;0.83;;;15.20;69.80;;;;;;5030923;27;20646;-81
2021/09/30 12:08:21;;;;;;;1.70;0.80;;;15.20;70.30;;;;;;5035143;28;20636;-81
2021/09/30 12:11:01;;;;;;;1.07;0.70;;;15.30;64.10;;;;;;5036862;28;20634;-81
2021/09/30 12:13:34;;;;;;;1.90;0.80;;;15.00;64.30;;;;;;5031430;28;20629;-81
2021/09/30 12:16:18;;;;;;;0.97;0.50;;;14.90;67.20;;;;;;5036701;27;20695;-81
2021/09/30 12:19:00;;;;;;;1.33;0.67;;;14.70;65.00;;;;;;5036463;28;20699;-81
2021/09/30 12:21:38;;;;;;;0.63;0.57;;;14.50;66.70;;;;;;5029635;28;20662;-81
2021/09/30 12:24:16;;;;;;;1.60;0.73;;;14.60;67.80;;;;;;5036092;27;20634;-80
2021/09/30 12:26:51;;;;;;;1.03;0.80;;;14.90;64.80;;;;;;5033046;28;21001;-81
2021/09/30 12:29:26;;;;;;;0.80;0.70;;;15.00;64.60;;;;;;5082139;27;20657;-81
2021/09/30 12:32:05;;;;;;;0.67;0.67;;;15.10;64.10;;;;;;5033684;28;20635;-81
2021/09/30 12:34:41;;;;;;;1.60;0.90;;;15.00;65.50;;;;;;5035243;28;20619;-81
2021/09/30 12:37:28;;;;;;;3.17;1.23;;;14.90;64.30;;;;;;5032550;28;20643;-81
2021/09/30 12:40:09;;;;;;;1.23;0.80;;;14.50;62.30;;;;;;5032744;28;20738;-81
2021/09/30 12:43:02;;;;;;;0.90;0.50;;;14.60;64.60;;;;;;5037636;28;20666;-81
2021/09/30 12:45:40;;;;;;;0.90;0.60;;;14.80;61.70;;;;;;5035995;28;20716;-81
2021/09/30 12:48:23;;;;;;;2.03;1.17;;;15.00;60.20;;;;;;5046556;28;20630;-81
2021/09/30 12:51:05;;;;;;;4.80;1.10;;;14.90;65.70;;;;;;5026485;27;20678;-81
2021/09/30 12:53:44;;;;;;;2.03;0.70;;;14.90;64.40;;;;;;5032356;27;20645;-81
2021/09/30 12:56:31;;;;;;;2.40;0.80;;;15.30;59.80;;;;;;5031090;28;20635;-81
2021/09/30 12:59:14;;;;;;;1.73;1.00;;;14.90;62.00;;;;;;5030128;28;20635;-81
2021/09/30 13:01:47;;;;;;;0.83;0.80;;;14.80;65.10;;;;;;5051540;27;20673;-82
2021/09/30 13:04:24;;;;;;;1.37;0.60;;;14.90;64.00;;;;;;5047238;27;20661;-81
2021/09/30 13:07:13;;;;;;;1.87;0.80;;;15.10;60.80;;;;;;5044483;27;20623;-82
2021/09/30 13:09:46;;;;;;;1.90;0.70;;;15.30;59.70;;;;;;5030993;28;20649;-81
2021/09/30 13:12:30;;;;;;;1.00;0.90;;;15.20;62.30;;;;;;5046265;28;20631;-81
2021/09/30 13:15:07;;;;;;;2.63;0.90;;;15.30;61.40;;;;;;5036502;28;20611;-82
2021/09/30 13:18:00;;;;;;;0.97;0.80;;;15.20;61.40;;;;;;5046148;27;21186;-81
2021/09/30 13:21:07;;;;;;;0.70;0.67;;;15.20;62.50;;;;;;5031078;28;21052;-82
2021/09/30 13:23:44;;;;;;;3.90;0.70;;;15.50;61.60;;;;;;5027551;28;20655;-81
2021/09/30 13:26:31;;;;;;;1.37;0.67;;;15.60;63.90;;;;;;5027984;28;20724;-81
2021/09/30 13:29:06;;;;;;;1.07;0.90;;;15.80;64.30;;;;;;5029821;28;20632;-81
2021/09/30 13:31:43;;;;;;;1.13;0.70;;;15.70;64.30;;;;;;5099158;27;21183;-81
2021/09/30 13:34:18;;;;;;;1.73;0.97;;;15.80;61.30;;;;;;5119256;27;21193;-81
2021/09/30 13:36:53;;;;;;;0.67;0.60;;;15.80;62.30;;;;;;5040786;28;20637;-81
2021/09/30 13:39:42;;;;;;;0.80;0.73;;;15.80;62.40;;;;;;5037847;28;21286;-81
2021/09/30 13:42:18;;;;;;;2.10;0.77;;;16.00;62.40;;;;;;5026255;28;20664;-81
2021/09/30 13:44:51;;;;;;;0.80;0.80;;;15.70;62.80;;;;;;5040596;27;20630;-81
2021/09/30 13:47:25;;;;;;;0.90;0.90;;;15.70;65.10;;;;;;5026438;28;20618;-81
2021/09/30 13:49:59;;;;;;;2.40;1.27;;;15.70;66.30;;;;;;5030273;28;20688;-81
2021/09/30 13:52:34;;;;;;;0.70;0.57;;;15.70;65.90;;;;;;5041540;28;20628;-81
2021/09/30 13:55:18;;;;;;;2.13;1.20;;;15.80;65.20;;;;;;5043164;27;21179;-81
2021/09/30 13:58:02;;;;;;;3.60;1.10;;;16.00;62.40;;;;;;5027370;27;20655;-81
2021/09/30 14:00:38;;;;;;;0.50;0.50;;;15.70;61.20;;;;;;5036975;27;20663;-81
2021/09/30 14:03:16;;;;;;;0.77;0.77;;;15.60;63.50;;;;;;5045985;28;20736;-81
2021/09/30 14:06:02;;;;;;;0.80;0.60;;;15.80;61.00;;;;;;5038542;28;20630;-82
2021/09/30 14:08:49;;;;;;;0.90;0.53;;;16.10;65.80;;;;;;5029894;28;20633;-81
2021/09/30 14:11:37;;;;;;;1.50;0.67;;;16.90;62.70;;;;;;5028064;28;20674;-81
2021/09/30 14:14:14;;;;;;;3.70;1.00;;;17.60;58.50;;;;;;5028468;28;20666;-81
2021/09/30 14:16:56;;;;;;;1.57;0.80;;;19.10;62.50;;;;;;5044171;27;20642;-81
2021/09/30 14:19:34;;;;;;;0.53;0.50;;;20.30;57.50;;;;;;5036659;28;20726;-82
2021/09/30 14:22:10;;;;;;;0.80;0.80;;;19.80;54.90;;;;;;5039732;27;20654;-82
2021/09/30 14:24:45;;;;;;;1.00;0.87;;;19.50;56.40;;;;;;5038078;28;20658;-82
2021/09/30 14:27:28;;;;;;;1.83;0.60;;;19.00;58.10;;;;;;5034138;27;20627;-82
2021/09/30 14:30:11;;;;;;;1.83;1.40;;;17.70;56.50;;;;;;5035049;28;20628;-82
2021/09/30 14:32:53;;;;;;;3.23;1.00;;;17.20;58.10;;;;;;5041293;28;20630;-82
2021/09/30 14:35:41;;;;;;;2.73;0.80;;;16.80;58.30;;;;;;5044215;28;20725;-82
2021/09/30 14:38:22;;;;;;;2.47;0.60;;;16.60;59.20;;;;;;5044062;27;20657;-82
2021/09/30 14:41:09;;;;;;;1.97;0.73;;;17.00;59.40;;;;;;5030164;28;21004;-82
2021/09/30 14:43:44;;;;;;;2.33;1.00;;;17.70;58.80;;;;;;5045377;28;21061;-82
2021/09/30 14:46:17;;;;;;;1.13;1.00;;;18.50;58.70;;;;;;5069122;27;20666;-82
2021/09/30 14:48:57;;;;;;;1.23;1.07;;;18.60;58.60;;;;;;5068601;27;21243;-82
2021/09/30 14:51:28;;;;;;;1.40;0.67;;;18.50;61.60;;;;;;5045923;27;20634;-82
2021/09/30 14:54:08;;;;;;;1.13;0.60;;;18.20;60.30;;;;;;5045388;28;21013;-83
2021/09/30 14:56:53;;;;;;;1.70;0.97;;;17.80;59.60;;;;;;5022850;27;20747;-83
2021/09/30 14:59:31;;;;;;;2.40;0.87;;;17.60;58.60;;;;;;5034266;28;20698;-82
2021/09/30 15:02:06;;;;;;;2.40;0.70;;;17.70;62.60;;;;;;5026753;28;21105;-82
2021/09/30 15:04:39;;;;;;;0.90;0.80;;;18.10;57.90;;;;;;5040463;28;22849;-83
2021/09/30 15:07:21;;;;;;;0.73;0.60;;;18.10;58.60;;;;;;5031588;28;20642;-82
2021/09/30 15:10:02;;;;;;;1.67;0.70;;;17.50;55.80;;;;;;5030194;28;21110;-82
2021/09/30 15:12:49;;;;;;;1.53;1.43;;;17.00;56.60;;;;;;5042067;27;21266;-83
2021/09/30 15:15:34;;;;;;;2.93;0.80;;;16.80;59.30;;;;;;5031368;28;20740;-82
2021/09/30 15:18:27;;;;;;;0.80;0.80;;;16.70;60.00;;;;;;5026812;28;20612;-82
2021/09/30 15:24:05;;;;;;;3.13;0.73;;;16.70;60.40;;;;;;5042681;28;20660;-83
2021/09/30 15:26:53;;;;;;;1.33;1.00;;;16.40;61.00;;;;;;5046974;27;20728;-82
2021/09/30 15:29:40;;;;;;;2.33;0.73;;;16.10;62.60;;;;;;5043916;28;21044;-82
2021/09/30 15:32:20;;;;;;;1.20;0.93;;;16.10;62.50;;;;;;5044198;28;20775;-82
2021/09/30 15:34:58;;;;;;;0.70;0.70;;;16.20;61.30;;;;;;5040270;27;20219;-82
2021/09/30 15:37:45;;;;;;;0.80;0.60;;;15.90;61.90;;;;;;5027885;28;20943;-83
2021/09/30 15:40:29;;;;;;;0.70;0.60;;;15.70;62.60;;;;;;5039351;27;20712;-83
2021/09/30 15:43:16;;;;;;;0.60;0.60;;;15.50;63.70;;;;;;5026473;27;20732;-83
2021/09/30 15:45:58;;;;;;;1.33;0.87;;;15.10;68.00;;;;;;5039538;28;20767;-83
2021/09/30 15:48:35;;;;;;;0.63;0.60;;;14.90;69.40;;;;;;5036499;28;20632;-82
2021/09/30 15:51:08;;;;;;;1.20;1.10;;;14.80;72.00;;;;;;5028688;28;20637;-82
2021/09/30 15:53:43;;;;;;;1.43;0.57;;;14.70;71.70;;;;;;5037724;27;20626;-83
2021/09/30 15:56:19;;;;;;;1.80;0.70;;;14.40;74.20;;;;;;5040810;28;20630;-83
2021/09/30 15:58:56;;;;;;;1.63;0.63;;;14.20;73.00;;;;;;5028503;27;21019;-83
2021/09/30 16:01:43;;;;;;;0.90;0.77;;;14.10;72.00;;;;;;5057883;27;20628;-83
2021/09/30 16:04:20;;;;;;;1.00;0.90;;;13.90;72.00;;;;;;5053076;27;20698;-83
2021/09/30 16:07:07;;;;;;;1.57;0.70;;;13.80;72.00;;;;;;5034514;28;20734;-83
2021/09/30 16:09:41;;;;;;;2.70;1.00;;;13.80;73.50;;;;;;5039018;28;21010;-83
2021/09/30 16:12:19;;;;;;;1.83;0.80;;;13.70;73.80;;;;;;5039280;27;20688;-83
2021/09/30 16:15:07;;;;;;;2.60;1.30;;;13.60;74.50;;;;;;5037166;28;21202;-83
2021/09/30 16:17:51;;;;;;;1.57;1.23;;;13.70;75.00;;;;;;5029842;28;20730;-83
2021/09/30 16:20:26;;;;;;;2.10;1.10;;;13.60;74.40;;;;;;5041512;28;21171;-83
2021/09/30 16:23:10;;;;;;;1.97;1.50;;;13.40;76.50;;;;;;5039996;28;20653;-83
2021/09/30 16:25:55;;;;;;;2.07;1.50;;;13.40;76.70;;;;;;5048418;28;20955;-83
2021/09/30 16:28:35;;;;;;;3.07;1.33;;;13.40;76.80;;;;;;5030884;28;20639;-82
2021/09/30 16:31:22;;;;;;;2.00;1.57;;;13.30;76.30;;;;;;5038323;27;21250;-83
2021/09/30 16:34:04;;;;;;;1.53;1.00;;;13.30;79.20;;;;;;5028956;28;20626;-83
2021/09/30 16:36:41;;;;;;;1.03;0.90;;;13.10;78.00;;;;;;5027268;28;20637;-82
2021/09/30 16:39:20;;;;;;;2.07;1.07;;;13.10;79.50;;;;;;5036759;28;20626;-83